Main page
METAR-TAF:

METAR-TAF

Airports :

Benbecula Airport

Benbecula, Scotland

latitude: 57-28N, longitude: 007-22W, elevation: 6 m

Current weather observation

The report was made 18 minutes ago, at 00:20 UTC
Wind 7 kt from the Southeast
Temperature 11°C
Humidity 87%
Pressure 1024 hPa
Visibility 10 km or more

METAR: EGPL 240020Z AUTO 14007KT 9999 NCD 11/09 Q1024

Time: 01:38 (00:38 UTC)

Forecast

The report was made 10 hours and 43 minutes ago, at 13:55 UTC
Forecast valid from 23 at 15 UTC to 23 at 17 UTC
Wind 9 kt from the South/Southwest
Visibility 10 km or more
Few clouds at a height of 2000 ft

TAF: EGPL 231355Z 2315/2317 20009KT 9999 FEW020

Weather observations and forecasts of more than 4000 airports (METAR and TAF reports).

The available stations are represented by yellow and red dots on the map.

Hover mouse over dot to see the name of the station.

Then click to see weather observations and forecasts.

To change the map : click on the green buttons with a black cross to zoom in, on the green button with a dash to zoom out, or on the green arrows for adjacent maps.


METAR-TAF: